Aeroporto :
LOGIN :

Iscrizione | Disclaimer

   EN    FR    IT 

 










Sommario :    VFR   VFR Marginale   IFR   IFR Intensivo   IFR Molto Intensivo
Visibilità : 
Base nubi : 
>= 8 km
>= 3000ft
5 / 8 km
1000 / 3000 ft
1500m / 5 km
500 / 1000 ft
800 / 1500m
200 / 500 ft
< 800m
< 200 ft
Simboli :   Temporali  Nebbia  Neve Forte  Precipitazioni Forti  Vento > 20 kt
SIGMETs :   Varie  Temporali  Ghiacco  Turbolenza  Onda orograficha  Ceneri Vulcaniche






- Altitudine del aeroporto : 909 ft
- Codice IATA : KSF


EDVK - Kassel Calden

ULTIMO METAR :
  • 211350Z 02008KT 340V060 9999 FEW044 07/M02 Q1022

METARs OBSOLETI :
  • 211320Z 03010KT 360V070 9999 FEW043 06/M01 Q1022
  • 211250Z 04010KT 010V070 9999 FEW043 06/M02 Q1022
  • 211220Z 04010KT 360V070 9999 FEW042 06/M02 Q1021
  • 211150Z 05011KT 9999 FEW040 06/M01 Q1021
  • 211120Z 05009KT 020V080 9999 FEW038 06/M01 Q1021
  • 211050Z 04011KT 010V070 9999 FEW024 05/M01 Q1021
  • 211020Z 04009KT 010V070 9999 FEW032 05/M00 Q1021
  • 210950Z 02009KT 340V050 9999 SCT032 BKN044 05/M00 Q1020
  • 210920Z 03008KT 350V060 9999 FEW031 SCT038 05/M00 Q1020

TAF TAF EDVK
Valido dal 21 a 12 ore il 21 a 21 ore UTC


211100Z 2112/2121 03010KT 9999 FEW030
BECMG 2116/2119 35005KT



MetMap, La meteo Aeronautica in un colpo d'occhio ! - Copyright ORBIFLY Dicembre 2007 - Disclaimer

ORBIFLY MET'MAP TEAM :

Programmazione e sviluppo : Alexandra Zaïnal
Concezione : Baudouin d'Aumeries
Supporto tecnico e logistico : Manuel Goepfert
Aiuto : Marc-Olivier Méhu
Aiuto per la traduzione : Arnaldo La Scala




FONTI E CREDITI :

   NOAA